Home > Products > Valid Products > TAF

000
FTUS46 KMFR 011100 RRA
TAFLMT
TAF
KLMT 011141Z 0112/0212 31005KT P6SM SKC=



000
FTUS46 KMFR 011100 RRA
TAFRBG
TAF
KRBG 011141Z 0112/0212 VRB03KT P6SM SKC
     FM012100 01011KT P6SM SKC
     FM020400 VRB03KT P6SM SKC=



000
FTUS46 KMFR 011100 RRA
TAFOTH
TAF
KOTH 011141Z 0112/0212 16004KT P6SM OVC007
     FM011700 02004KT P6SM FEW005
     FM011900 35017G25KT P6SM SKC
     FM020500 36010KT P6SM OVC007=



000
FTUS46 KMFR 011100 RRA
TAFMFR
TAF
KMFR 011141Z 0112/0212 00000KT P6SM SKC
     FM012300 33009KT P6SM SKC
     FM020400 VRB03KT P6SM SKC=



000
FTUS46 KMFR 010600 AAA
TAFOTH
TAF AMD
KOTH 010616Z 0106/0206 00000KT P6SM OVC015
     FM010900 00000KT 5SM BR BKN005 OVC015
     FM011100 00000KT 1SM BR OVC003
     FM011600 02004KT P6SM FEW005
     FM011900 35014G20KT P6SM SKC
     FM012200 35021G28KT P6SM SKC
     FM020500 36012KT P6SM FEW009=



000
FTUS46 KMFR 010500
TAFMFR
TAF
KMFR 010520Z 0106/0206 00000KT P6SM SKC
     FM012300 33009KT P6SM SKC
     FM020400 VRB03KT P6SM SKC=



000
FTUS46 KMFR 010500
TAFOTH
TAF
KOTH 010520Z 0106/0206 00000KT P6SM FEW005
     FM010700 00000KT 5SM BR BKN005
     FM011000 00000KT 1SM BR OVC003
     FM011600 02004KT P6SM FEW005
     FM011900 35014G20KT P6SM SKC
     FM012200 35021G28KT P6SM SKC
     FM020500 36012KT P6SM FEW009=



000
FTUS46 KMFR 010500
TAFLMT
TAF
KLMT 010520Z 0106/0206 31005KT P6SM SKC=



000
FTUS46 KMFR 010500
TAFRBG
TAF
KRBG 010520Z 0106/0206 VRB03KT P6SM SKC
     FM012100 01011KT P6SM SKC
     FM020400 VRB03KT P6SM SKC=



000
FTUS46 KMFR 010100 AAA
TAFLMT
TAF AMD
KLMT 010114Z 0101/0124 33012KT P6SM SKC
     FM010500 31005KT P6SM SKC=



000
FTUS46 KMFR 312300
TAFMFR
TAF
KMFR 312338Z 0100/0124 00000KT P6SM SKC=



000
FTUS46 KMFR 312300
TAFLMT
TAF
KLMT 312338Z 0100/0124 00000KT P6SM SKC=



000
FTUS46 KMFR 312300
TAFRBG
TAF
KRBG 312338Z 0100/0124 31007KT P6SM FEW070
     FM010400 00000KT P6SM SKC
     FM012100 01008KT P6SM SKC=



000
FTUS46 KMFR 312300
TAFOTH
TAF
KOTH 312338Z 0100/0124 33007KT P6SM FEW060
     FM010600 16003KT P6SM BKN005
     FM011600 02004KT P6SM FEW005
     FM011900 35015G25KT P6SM SKC=



000
FTUS46 KMFR 311700
TAFMFR
TAF
KMFR 311740Z 3118/0118 35004KT P6SM SCT035
     FM312100 32009KT P6SM SKC
     FM010400 VRB03KT P6SM SKC=



000
FTUS46 KMFR 311700
TAFRBG
TAF
KRBG 311740Z 3118/0118 35004KT P6SM FEW025
     FM311900 35008KT P6SM SKC
     FM010400 VRB03KT P6SM SKC=



000
FTUS46 KMFR 311700
TAFOTH
TAF
KOTH 311740Z 3118/0118 34010KT P6SM SKC
     FM010600 05005KT P6SM BKN005
     FM011600 35010KT P6SM SKC=



000
FTUS46 KMFR 311700
TAFLMT
TAF
KLMT 311740Z 3118/0118 30005KT P6SM SKC
     FM312200 32010KT P6SM SKC
     FM010400 VRB03KT P6SM SKC=



000
FTUS46 KMFR 311300 AAA
TAFMFR
TAF AMD
KMFR 311319Z 3113/0112 36003KT P6SM OVC035
     FM311600 35004KT P6SM SCT035
     FM312100 32009KT P6SM SKC=



000
FTUS46 KMFR 311100
TAFMFR
TAF
KMFR 311139Z 3112/0112 VRB02KT P6SM FEW030
     FM312100 32009KT P6SM SKC=



000
FTUS46 KMFR 311100
TAFLMT
TAF
KLMT 311139Z 3112/0112 30005KT P6SM SKC
     FM312200 32010KT P6SM SKC=



000
FTUS46 KMFR 311100
TAFRBG
TAF
KRBG 311139Z 3112/0112 00000KT P6SM SCT025
     FM311400 00000KT P6SM OVC025
     FM311700 35004KT P6SM FEW025
     FM311900 35008KT P6SM SKC=



000
FTUS46 KMFR 311100
TAFOTH
TAF
KOTH 311139Z 3112/0112 14005KT 6SM BR OVC002
      TEMPO 3112/3114 1/2SM FG
     FM311600 18005KT 4SM BR BKN005
     FM311800 34010KT P6SM SKC
     FM010300 05005KT P6SM OVC005=



000
FTUS46 KMFR 310800 AAA
TAFOTH
TAF AMD
KOTH 310832Z 3109/0106 14005KT 1SM BR OVC002
      TEMPO 3110/3114 1/2SM FG OVC001
     FM311600 18005KT 2SM BR BKN005
     FM311800 29009KT P6SM SKC=



000
FTUS46 KMFR 310500
TAFLMT
TAF
KLMT 310538Z 3106/0106 30005KT P6SM SKC
     FM312100 32010KT P6SM SKC=



000
FTUS46 KMFR 310500
TAFMFR
TAF
KMFR 310538Z 3106/0106 34005KT P6SM SCT060
     FM311200 VRB02KT P6SM SKC
     FM312100 31009KT P6SM SKC=



000
FTUS46 KMFR 310500
TAFRBG
TAF
KRBG 310538Z 3106/0106 01003KT P6SM FEW040 SCT060
     FM311100 00000KT P6SM OVC025
     FM311700 35004KT P6SM FEW025=



000
FTUS46 KMFR 310500
TAFOTH
TAF
KOTH 310538Z 3106/0106 00000KT P6SM FEW015
     FM311000 16003KT P6SM SCT008 BKN015
     FM311100 16003KT 3SM BR OVC005
     FM311600 18003KT P6SM BKN008
     FM311800 29009KT P6SM SKC=



000
FTUS46 KMFR 310200 AAA
TAFRBG
TAF AMD
KRBG 310242Z 3103/3124 30005KT P6SM BKN040 OVC050
     FM311200 00000KT P6SM OVC020
     FM311700 00000KT P6SM SCT020=



000
FTUS46 KMFR 302300
TAFMFR
TAF
KMFR 302340Z 3100/3124 33014G19KT P6SM SCT090
     FM310400 33006KT P6SM FEW070
     FM310800 VRB02KT P6SM FEW035
     FM312100 31007KT P6SM SKC=



000
FTUS46 KMFR 302300
TAFLMT
TAF
KLMT 302340Z 3100/3124 30015G21KT P6SM SCT070
     FM310500 32007KT P6SM FEW080
     FM310900 VRB03KT P6SM SKC
     FM312100 32010KT P6SM SCT080=



000
FTUS46 KMFR 302300
TAFOTH
TAF
KOTH 302340Z 3100/3124 31005KT P6SM SCT015
     FM310400 27003KT P6SM BKN050
     FM310900 16003KT P6SM BKN020
     FM311000 16003KT 3SM -DZ BR OVC005=



000
FTUS46 KMFR 302300
TAFRBG
TAF
KRBG 302340Z 3100/3124 35008KT P6SM BKN030 OVC035
     FM310400 35003KT P6SM SCT050
     FM311200 00000KT P6SM OVC020
     FM311700 00000KT P6SM SCT020=



000
FTUS46 KMFR 301700
TAFMFR
TAF
KMFR 301737Z 3018/3118 31004KT P6SM SCT120 BKN200
     FM302200 31013G20KT P6SM BKN200
     FM310300 33006KT P6SM FEW070
     FM310800 VRB02KT P6SM FEW035=



000
FTUS46 KMFR 301700
TAFLMT
TAF
KLMT 301737Z 3018/3118 28004KT P6SM BKN120
     FM302100 31017G27KT P6SM SCT080 BKN150
     FM310400 32007KT P6SM FEW080
     FM310900 VRB03KT P6SM SKC=



000
FTUS46 KMFR 301700
TAFRBG
TAF
KRBG 301737Z 3018/3118 VRB03KT P6SM SCT100
     FM302100 34007KT P6SM SCT080
     FM310100 VRB03KT P6SM SCT050
     FM311200 00000KT P6SM OVC020=



000
FTUS46 KMFR 301700
TAFOTH
TAF
KOTH 301737Z 3018/3118 23006KT P6SM OVC025
      TEMPO 3018/3020 5SM BR OVC016
     FM302300 32010KT P6SM SCT020 BKN035
     FM311000 16003KT 5SM -DZ BR OVC005
     FM311500 15003KT 3SM BR OVC004=



000
FTUS46 KMFR 301600 AAB
TAFOTH
TAF AMD
KOTH 301656Z 3017/3112 15005KT P6SM OVC017
     FM301800 23006KT P6SM SCT008 OVC023
     FM302300 32012KT P6SM FEW020 BKN035
     FM311000 16003KT 5SM -DZ BR OVC005=



000
FTUS46 KMFR 301400 AAA
TAFOTH
TAF AMD
KOTH 301410Z 3014/3112 15005KT 6SM -DZ BKN005 OVC020
     FM301700 23006KT P6SM SCT008 OVC023
     FM302300 32012KT P6SM FEW020 BKN035
     FM311000 16003KT 5SM -DZ BR OVC005=



000
FTUS46 KMFR 301100
TAFRBG
TAF
KRBG 301140Z 3012/3112 00000KT P6SM SKC
     FM301600 VRB02KT P6SM FEW020
     FM302100 34007KT P6SM SCT200
     FM310100 VRB03KT P6SM SCT050=



000
FTUS46 KMFR 301100
TAFMFR
TAF
KMFR 301140Z 3012/3112 31004KT P6SM SKC
     FM302200 31013G20KT P6SM FEW080 BKN200
     FM310300 33006KT P6SM FEW070=



000
FTUS46 KMFR 301100
TAFLMT
TAF
KLMT 301140Z 3012/3112 28004KT P6SM SKC
     FM302100 31017G27KT P6SM SCT080 BKN150
     FM310400 32007KT P6SM FEW080=



000
FTUS46 KMFR 301100
TAFOTH
TAF
KOTH 301140Z 3012/3112 16003KT 6SM -DZ OVC005
     FM301700 23006KT 5SM -DZ BR BKN008 OVC015
     FM302300 32012KT P6SM FEW020 BKN035
     FM311000 16003KT 5SM -DZ BR OVC005=



000
FTUS46 KMFR 300500
TAFOTH
TAF
KOTH 300537Z 3006/3106 VRB03KT P6SM OVC005
     FM301200 16003KT 3SM -DZ BR OVC003
     FM301600 23006KT 5SM -DZ BR BKN008 OVC015
     FM302100 29010KT P6SM FEW020 BKN035=



000
FTUS46 KMFR 300500
TAFMFR
TAF
KMFR 300537Z 3006/3106 VRB04KT P6SM SCT200
     FM302100 31013KT P6SM SCT080 BKN200
     FM310300 33006KT P6SM FEW070=



000
FTUS46 KMFR 300500
TAFRBG
TAF
KRBG 300537Z 3006/3106 VRB03KT P6SM SCT200
     FM301300 00000KT P6SM SCT025 BKN040
     FM302100 34007KT P6SM BKN025 OVC040
     FM310100 VRB03KT P6SM SCT050=



000
FTUS46 KMFR 300500
TAFLMT
TAF
KLMT 300537Z 3006/3106 28007KT P6SM SCT100
     FM300700 VRB02KT 6SM FU SKC
     FM301200 28004KT P6SM SKC
     FM302100 31017G27KT P6SM SCT080 BKN150
     FM310400 32007KT P6SM FEW080=



000
FTUS46 KMFR 300200 AAA
TAFLMT
TAF AMD
KLMT 300218Z 3002/3024 30012KT 6SM FU SCT060
     FM300500 28007KT 6SM FU SKC
     FM300700 VRB02KT 6SM FU SKC
     FM301200 VRB03KT P6SM SKC
     FM302100 31017G27KT P6SM SCT100=



000
FTUS46 KMFR 300200 AAA
TAFOTH
TAF AMD
KOTH 300216Z 3002/3024 33006KT P6SM SKC
     FM300400 32005KT P6SM OVC005
     FM300800 16003KT 3SM -DZ BR OVC003
     FM301700 23005KT P6SM BKN015
     FM302100 29010KT P6SM BKN035=



000
FTUS46 KMFR 292300 RRA
TAFLMT
TAF
KLMT 292350Z 3000/3024 31015G20KT 2SM FU SKC
     FM300500 28007KT 4SM FU SKC
     FM300700 VRB02KT 4SM FU SKC
     FM301200 VRB03KT P6SM SKC
     FM302100 31017G27KT P6SM SCT100=



000
FTUS46 KMFR 292300 RRA
TAFRBG
TAF
KRBG 292350Z 3000/3024 33012G16KT P6SM SKC
     FM300400 VRB03KT P6SM SKC
     FM301300 00000KT P6SM BKN030
     FM301800 34005KT P6SM BKN045=



000
FTUS46 KMFR 292300 RRA
TAFMFR
TAF
KMFR 292350Z 3000/3024 30012KT P6SM SKC
     FM300300 VRB04KT P6SM SKC
     FM302100 31013KT P6SM SCT060=



000
FTUS46 KMFR 292300 RRA
TAFOTH
TAF
KOTH 292350Z 3000/3024 33009KT P6SM SKC
     FM300200 34007KT P6SM OVC007
     FM300900 16003KT 3SM -DZ BR OVC003
     FM301700 23005KT P6SM BKN015
     FM302100 29010KT P6SM BKN035=



000
FTUS46 KMFR 291700
TAFRBG
TAF
KRBG 291738Z 2918/3018 VRB03KT P6SM SKC
     FM292100 36007KT P6SM SKC
     FM300400 VRB03KT P6SM SKC
     FM301100 VRB02KT P6SM BKN045=



000
FTUS46 KMFR 291700
TAFLMT
TAF
KLMT 291738Z 2918/3018 VRB03KT 6SM FU SCT040
     FM292100 29012G21KT 6SM HZ SKC
     FM300300 31007KT P6SM SKC
     FM300700 VRB03KT P6SM SKC=



000
FTUS46 KMFR 291700
TAFOTH
TAF
KOTH 291738Z 2918/3018 34007KT P6SM BKN012
     FM292100 32012KT P6SM BKN015
     FM300300 34007KT P6SM OVC007
     FM300900 16003KT 3SM -DZ BR OVC003=



000
FTUS46 KMFR 291700
TAFMFR
TAF
KMFR 291738Z 2918/3018 VRB02KT P6SM SKC
     FM292200 32012KT P6SM SKC
     FM300300 VRB04KT P6SM SKC=



000
FTUS46 KMFR 291500 AAA
TAFOTH
TAF AMD
KOTH 291546Z 2916/3012 02003KT P6SM OVC009
     FM291800 34010G19KT P6SM BKN012
     FM300300 34008KT P6SM OVC006
     FM300900 16003KT 4SM -DZ BR OVC003=



000
FTUS46 KMFR 291300 AAA
TAFRBG
TAF AMD
KRBG 291338Z 2914/3012 VRB03KT P6SM SKC
     FM291600 VRB03KT P6SM SCT012
     FM291900 36006KT P6SM SKC=



    US Dept of Commerce
    National Oceanic and Atmospheric Administration
    National Weather Service
    1325 East West Highway
    Silver Spring, MD 20910
    Page Author: NWS Internet Services Team
Disclaimer
Information Quality
Credits
Glossary
Privacy Policy
Freedom of Information Act (FOIA)
About Us
Career Opportunities